createdAt,value
2022-08-17T00:00:34.246Z,98372.47
2022-08-17T00:03:26.645Z,98382.31
2022-08-17T00:06:18.373Z,98380.19
2022-08-17T00:09:05.191Z,98382.78
2022-08-17T00:12:41.578Z,98383.88
2022-08-17T00:14:56.110Z,98367.84
2022-08-17T00:17:43.947Z,98375.22
2022-08-17T00:20:30.585Z,98378.88
2022-08-17T00:23:20.426Z,98380.81
2022-08-17T00:26:05.366Z,98377.09
2022-08-17T00:28:50.322Z,98382.72
2022-08-17T00:31:37.282Z,98379.72
2022-08-17T00:34:22.133Z,98376.91
2022-08-17T00:37:07.041Z,98383.94
2022-08-17T00:39:52.484Z,98374.94
2022-08-17T00:42:38.560Z,98373.56
2022-08-17T00:45:23.618Z,98379.66
2022-08-17T00:48:11.566Z,98375.03
2022-08-17T00:51:17.775Z,98377.94
2022-08-17T00:54:18.390Z,98381.13
2022-08-17T00:57:12.274Z,98382.50
2022-08-17T01:00:03.745Z,98380.97
2022-08-17T01:02:48.829Z,98378.19
2022-08-17T01:05:38.278Z,98379.25
2022-08-17T01:08:29.375Z,98383.22
2022-08-17T01:11:14.480Z,98388.75
2022-08-17T01:13:59.275Z,98388.56
2022-08-17T01:16:45.265Z,98391.16
2022-08-17T01:19:33.811Z,98385.94
2022-08-17T01:22:23.770Z,98384.09
2022-08-17T01:25:10.807Z,98384.88
2022-08-17T01:27:55.874Z,98375.50
2022-08-17T01:30:58.226Z,98384.41
2022-08-17T01:33:45.162Z,98379.00
2022-08-17T01:36:30.033Z,98370.72
2022-08-17T01:39:26.129Z,98378.34
2022-08-17T01:42:15.230Z,98373.44
2022-08-17T01:45:08.032Z,98379.25
2022-08-17T01:47:54.740Z,98377.22
2022-08-17T01:50:44.035Z,98375.41
2022-08-17T01:53:41.010Z,98374.16
2022-08-17T01:56:28.086Z,98372.00
2022-08-17T01:59:13.966Z,98372.31
2022-08-17T02:02:00.433Z,98371.81
2022-08-17T02:04:45.694Z,98372.91
2022-08-17T02:07:30.545Z,98379.94
2022-08-17T02:10:20.001Z,98381.19
2022-08-17T02:13:05.675Z,98375.97
2022-08-17T02:15:50.891Z,98387.84
2022-08-17T02:18:36.462Z,98385.41
2022-08-17T02:21:21.952Z,98386.72
2022-08-17T02:24:11.136Z,98389.22
2022-08-17T02:26:56.071Z,98391.69
2022-08-17T02:29:41.092Z,98388.19
2022-08-17T02:32:28.088Z,98393.59
2022-08-17T02:35:14.005Z,98393.78
2022-08-17T02:38:06.899Z,98394.25
2022-08-17T02:40:52.000Z,98393.94
2022-08-17T02:43:36.999Z,98391.50
2022-08-17T02:46:22.138Z,98396.59
2022-08-17T02:49:07.426Z,98392.06
2022-08-17T02:51:52.691Z,98405.75
2022-08-17T02:54:40.776Z,98399.03
2022-08-17T02:57:27.241Z,98395.53
2022-08-17T03:00:17.766Z,98399.09
2022-08-17T03:03:04.896Z,98396.31
2022-08-17T03:05:53.596Z,98400.16
2022-08-17T03:08:40.035Z,98400.34
2022-08-17T03:11:25.064Z,98398.19
2022-08-17T03:14:10.658Z,98400.19
2022-08-17T03:16:55.375Z,98399.59
2022-08-17T03:19:42.912Z,98392.25
2022-08-17T03:22:47.910Z,98388.56
2022-08-17T03:25:37.700Z,98390.88
2022-08-17T03:28:24.454Z,98391.63
2022-08-17T03:31:09.170Z,98389.50
2022-08-17T03:33:54.439Z,98392.75
2022-08-17T03:36:39.709Z,98385.81
2022-08-17T03:39:24.590Z,98389.84
2022-08-17T03:42:32.331Z,98380.34
2022-08-17T03:45:42.253Z,98385.44
2022-08-17T03:48:46.795Z,98380.22
2022-08-17T03:51:49.987Z,98381.78
2022-08-17T03:54:53.440Z,98385.78
2022-08-17T03:57:38.411Z,98389.31
2022-08-17T04:00:23.397Z,98386.31
2022-08-17T04:03:09.034Z,98395.22
2022-08-17T04:05:54.033Z,98395.22
2022-08-17T04:08:39.440Z,98407.38
2022-08-17T04:11:24.995Z,98408.75
2022-08-17T04:14:10.150Z,98416.44
2022-08-17T04:16:55.551Z,98418.16
2022-08-17T04:19:40.788Z,98425.53
2022-08-17T04:22:32.479Z,98424.59
2022-08-17T04:25:18.945Z,98423.53
2022-08-17T04:28:05.671Z,98422.16
2022-08-17T04:30:59.425Z,98417.25
2022-08-17T04:33:44.582Z,98417.25
2022-08-17T04:36:29.360Z,98418.16
2022-08-17T04:39:14.303Z,98415.44
2022-08-17T04:42:16.429Z,98419.72
2022-08-17T04:45:04.057Z,98409.09
2022-08-17T04:47:49.232Z,98413.41
2022-08-17T04:50:36.887Z,98418.66
2022-08-17T04:53:25.576Z,98414.19
2022-08-17T04:56:16.677Z,98405.09
2022-08-17T04:59:13.474Z,98406.34
2022-08-17T05:01:58.730Z,98409.72
2022-08-17T05:04:43.741Z,98409.88
2022-08-17T05:07:31.582Z,98407.13
2022-08-17T05:10:17.256Z,98402.50
2022-08-17T05:13:06.938Z,98407.72
2022-08-17T05:15:55.287Z,98412.34
2022-08-17T05:18:40.715Z,98408.78
2022-08-17T05:21:26.908Z,98413.72
2022-08-17T05:24:13.524Z,98410.19
2022-08-17T05:27:19.053Z,98411.13
2022-08-17T05:30:04.702Z,98412.00
2022-08-17T05:32:54.746Z,98417.38
2022-08-17T05:35:43.826Z,98419.19
2022-08-17T05:38:30.322Z,98414.88
2022-08-17T05:41:15.522Z,98419.22
2022-08-17T05:44:00.421Z,98427.09
2022-08-17T05:46:52.698Z,98427.44
2022-08-17T05:49:37.948Z,98431.28
2022-08-17T05:52:29.071Z,98434.66
2022-08-17T05:55:35.060Z,98435.81
2022-08-17T05:58:24.847Z,98435.59
2022-08-17T06:01:31.375Z,98444.31
2022-08-17T06:04:54.873Z,98449.38
2022-08-17T06:07:48.172Z,98450.75
2022-08-17T06:10:45.932Z,98445.66
2022-08-17T06:13:52.935Z,98437.47
2022-08-17T06:16:44.336Z,98450.66
2022-08-17T06:19:41.812Z,98442.50
2022-08-17T06:22:32.764Z,98444.59
2022-08-17T06:25:21.478Z,98436.75
2022-08-17T06:28:14.273Z,98439.72
2022-08-17T06:31:07.362Z,98441.13
2022-08-17T06:33:52.561Z,98443.16
2022-08-17T06:37:01.207Z,98453.78
2022-08-17T06:40:01.153Z,98455.81
2022-08-17T06:43:06.687Z,98460.91
2022-08-17T06:46:15.415Z,98456.16
2022-08-17T06:49:24.606Z,98468.56
2022-08-17T06:52:45.356Z,98491.34
2022-08-17T06:55:46.026Z,98475.56
2022-08-17T06:58:33.002Z,98479.38
2022-08-17T07:01:26.462Z,98483.47
2022-08-17T07:04:25.791Z,98479.44
2022-08-17T07:07:30.398Z,98476.84
2022-08-17T07:10:16.330Z,98480.81
2022-08-17T07:13:21.725Z,98479.44
2022-08-17T07:16:23.963Z,98487.63
2022-08-17T07:19:11.055Z,98483.81
2022-08-17T07:22:30.234Z,98480.00
2022-08-17T07:25:35.409Z,98476.22
2022-08-17T07:28:23.969Z,98474.84
2022-08-17T07:31:12.760Z,98470.72
2022-08-17T07:34:06.257Z,98479.03
2022-08-17T07:37:04.759Z,98479.94
2022-08-17T07:40:04.470Z,98491.78
2022-08-17T07:43:21.803Z,98493.00
2022-08-17T07:46:40.520Z,98514.09
2022-08-17T07:49:31.843Z,98531.22
2022-08-17T07:52:51.998Z,98532.94
2022-08-17T07:55:39.895Z,98517.94
2022-08-17T07:58:25.987Z,98504.84
2022-08-17T08:01:17.943Z,98497.47
2022-08-17T08:04:50.022Z,98499.00
2022-08-17T08:07:35.387Z,98497.28
2022-08-17T08:10:45.004Z,98500.22
2022-08-17T08:13:31.828Z,98506.63
2022-08-17T08:16:17.032Z,98515.81
2022-08-17T08:19:02.242Z,98521.03
2022-08-17T08:22:05.061Z,98515.69
2022-08-17T08:25:16.200Z,98519.72
2022-08-17T08:28:15.210Z,98522.75
2022-08-17T08:31:23.831Z,98532.16
2022-08-17T08:34:08.872Z,98534.22
2022-08-17T08:37:48.452Z,98535.28
2022-08-17T08:40:50.386Z,98540.09
2022-08-17T08:43:56.480Z,98536.72
2022-08-17T08:47:09.490Z,98537.44
2022-08-17T08:50:30.220Z,98533.69
2022-08-17T08:53:45.097Z,98528.16
2022-08-17T08:57:19.473Z,98535.91
2022-08-17T09:00:10.292Z,98536.69
2022-08-17T09:03:08.429Z,98531.06
2022-08-17T09:06:37.539Z,98533.22
2022-08-17T09:09:42.419Z,98522.25
2022-08-17T09:12:59.662Z,98525.00
2022-08-17T09:15:58.614Z,98526.03
2022-08-17T09:19:01.473Z,98531.50
2022-08-17T09:21:54.414Z,98517.63
2022-08-17T09:24:56.623Z,98514.19
2022-08-17T09:27:58.086Z,98510.56
2022-08-17T09:30:51.633Z,98514.88
2022-08-17T09:33:45.357Z,98512.66
2022-08-17T09:36:43.594Z,98508.78
2022-08-17T09:39:42.427Z,98524.22
2022-08-17T09:42:45.292Z,98524.25
2022-08-17T09:45:29.872Z,98524.16
2022-08-17T09:48:26.990Z,98520.72
2022-08-17T09:51:15.216Z,98524.84
2022-08-17T09:54:21.055Z,98532.81
2022-08-17T09:57:32.470Z,98537.44
2022-08-17T10:00:26.955Z,98540.59
2022-08-17T10:03:15.830Z,98532.78
2022-08-17T10:06:10.163Z,98530.25
2022-08-17T10:09:09.702Z,98528.75
2022-08-17T10:12:17.317Z,98526.69
2022-08-17T10:15:09.527Z,98519.22
2022-08-17T10:18:08.190Z,98523.16
2022-08-17T10:21:13.255Z,98518.19
2022-08-17T10:25:21.598Z,98519.47
2022-08-17T10:27:59.207Z,98516.88
2022-08-17T10:31:16.692Z,98517.66
2022-08-17T10:34:23.221Z,98511.34
2022-08-17T10:37:14.758Z,98502.00
2022-08-17T10:40:27.333Z,98496.31
2022-08-17T10:43:33.396Z,98505.31
2022-08-17T10:46:52.108Z,98499.38
2022-08-17T10:49:48.935Z,98504.06
2022-08-17T10:52:40.706Z,98508.28
2022-08-17T10:55:26.059Z,98508.59
2022-08-17T10:58:21.427Z,98504.38
2022-08-17T11:01:08.309Z,98510.19
2022-08-17T11:03:56.239Z,98501.03
2022-08-17T11:07:01.737Z,98508.84
2022-08-17T11:10:15.870Z,98495.78
2022-08-17T11:13:21.213Z,98500.31
2022-08-17T11:16:35.237Z,98500.25
2022-08-17T11:19:37.875Z,98496.81
2022-08-17T11:22:43.825Z,98495.00
2022-08-17T11:25:40.097Z,98487.94
2022-08-17T11:28:33.858Z,98484.84
2022-08-17T11:31:43.699Z,98483.66
2022-08-17T11:34:31.151Z,98470.97
2022-08-17T11:37:39.697Z,98478.66
2022-08-17T11:40:36.495Z,98474.25
2022-08-17T11:43:46.204Z,98473.13
2022-08-17T11:47:11.388Z,98469.94
2022-08-17T11:50:38.916Z,98466.22
2022-08-17T11:54:21.390Z,98466.03
2022-08-17T11:57:26.370Z,98466.84
2022-08-17T12:00:49.578Z,98458.13
2022-08-17T12:03:34.449Z,98451.31
2022-08-17T12:06:22.503Z,98463.78
2022-08-17T12:09:20.566Z,98475.97
2022-08-17T12:12:32.483Z,98490.38
2022-08-17T12:15:25.187Z,98482.34
2022-08-17T12:18:20.513Z,98485.69
2022-08-17T12:21:45.625Z,98485.34
2022-08-17T12:24:33.402Z,98484.25
2022-08-17T12:28:04.647Z,98480.34
2022-08-17T12:30:37.354Z,98464.91
2022-08-17T12:33:27.902Z,98475.16
2022-08-17T12:36:16.027Z,98479.63
2022-08-17T12:39:13.832Z,98481.63
2022-08-17T12:42:02.648Z,98511.81
2022-08-17T12:44:50.741Z,98508.72
2022-08-17T12:47:37.093Z,98512.91
2022-08-17T12:50:29.014Z,98524.75
2022-08-17T12:53:20.873Z,98527.44
2022-08-17T12:56:11.441Z,98526.25
2022-08-17T12:58:57.250Z,98538.09
2022-08-17T13:01:42.522Z,98543.38
2022-08-17T13:04:29.678Z,98539.38
2022-08-17T13:07:29.618Z,98547.22
2022-08-17T13:10:35.357Z,98531.69
2022-08-17T13:13:24.323Z,98529.16
2022-08-17T13:16:12.066Z,98537.50
2022-08-17T13:19:13.763Z,98539.41
2022-08-17T13:22:01.222Z,98539.28
2022-08-17T13:24:55.875Z,98542.22
2022-08-17T13:27:42.463Z,98535.03
2022-08-17T13:30:32.624Z,98532.00
2022-08-17T13:33:43.331Z,98533.84
2022-08-17T13:36:32.877Z,98529.84
2022-08-17T13:39:24.355Z,98537.59
2022-08-17T13:42:33.366Z,98543.28
2022-08-17T13:45:42.943Z,98533.66
2022-08-17T13:48:33.361Z,98538.91
2022-08-17T13:51:31.267Z,98538.63
2022-08-17T13:54:22.737Z,98540.31
2022-08-17T13:57:22.487Z,98543.59
2022-08-17T14:00:15.347Z,98541.28
2022-08-17T14:03:03.845Z,98547.78
2022-08-17T14:05:50.142Z,98550.09
2022-08-17T14:08:36.636Z,98550.25
2022-08-17T14:11:22.908Z,98553.09
2022-08-17T14:14:08.724Z,98551.22
2022-08-17T14:16:53.793Z,98545.22
2022-08-17T14:19:39.151Z,98534.75
2022-08-17T14:22:33.724Z,98547.38
2022-08-17T14:25:23.317Z,98553.53
2022-08-17T14:28:08.445Z,98555.84
2022-08-17T14:30:53.578Z,98554.28
2022-08-17T14:33:38.458Z,98544.25
2022-08-17T14:36:23.284Z,98555.06
2022-08-17T14:39:12.848Z,98548.28
2022-08-17T14:41:57.997Z,98540.41
2022-08-17T14:44:43.237Z,98540.72
2022-08-17T14:47:28.185Z,98546.88
2022-08-17T14:50:19.522Z,98560.28
2022-08-17T14:53:07.159Z,98564.75
2022-08-17T14:55:52.144Z,98571.53
2022-08-17T14:58:38.443Z,98576.66
2022-08-17T15:01:25.106Z,98587.59
2022-08-17T15:04:14.298Z,98584.53
2022-08-17T15:06:59.340Z,98582.34
2022-08-17T15:09:44.864Z,98582.22
2022-08-17T15:12:33.962Z,98574.81
2022-08-17T15:15:19.848Z,98563.25
2022-08-17T15:18:05.366Z,98561.22
2022-08-17T15:20:50.757Z,98560.59
2022-08-17T15:23:36.707Z,98569.97
2022-08-17T15:26:26.067Z,98573.03
2022-08-17T15:29:11.259Z,98564.25
2022-08-17T15:32:00.445Z,98560.09
2022-08-17T15:34:45.707Z,98561.94
2022-08-17T15:37:31.556Z,98564.88
2022-08-17T15:40:16.803Z,98559.47
2022-08-17T15:43:10.305Z,98559.78
2022-08-17T15:45:59.952Z,98563.66
2022-08-17T15:48:48.298Z,98573.19
2022-08-17T15:51:34.990Z,98568.59
2022-08-17T15:54:22.750Z,98579.69
2022-08-17T15:57:08.488Z,98571.69
2022-08-17T15:59:59.061Z,98573.72
2022-08-17T16:03:13.703Z,98574.00
2022-08-17T16:05:50.469Z,98568.91
2022-08-17T16:08:36.403Z,98564.41
2022-08-17T16:11:22.241Z,98559.00
2022-08-17T16:14:07.176Z,98562.72
2022-08-17T16:16:52.249Z,98568.88
2022-08-17T16:19:38.858Z,98570.44
2022-08-17T16:22:43.287Z,98563.84
2022-08-17T16:25:38.273Z,98571.88
2022-08-17T16:28:37.863Z,98573.25
2022-08-17T16:31:23.138Z,98577.38
2022-08-17T16:34:18.000Z,98574.03
2022-08-17T16:37:03.943Z,98582.94
2022-08-17T16:39:48.674Z,98572.41
2022-08-17T16:42:36.466Z,98575.91
2022-08-17T16:45:28.578Z,98572.09
2022-08-17T16:48:15.070Z,98582.16
2022-08-17T16:51:03.378Z,98581.78
2022-08-17T16:53:57.805Z,98578.59
2022-08-17T16:56:45.342Z,98568.63
2022-08-17T16:59:41.978Z,98567.31
2022-08-17T17:02:33.749Z,98572.50
2022-08-17T17:05:18.803Z,98564.03
2022-08-17T17:08:11.983Z,98571.41
2022-08-17T17:11:03.675Z,98578.19
2022-08-17T17:13:58.938Z,98570.41
2022-08-17T17:16:50.195Z,98578.06
2022-08-17T17:19:40.773Z,98577.13
2022-08-17T17:22:47.683Z,98585.22
2022-08-17T17:25:39.166Z,98583.97
2022-08-17T17:28:38.084Z,98586.06
2022-08-17T17:31:29.754Z,98586.78
2022-08-17T17:34:16.052Z,98589.00
2022-08-17T17:37:10.155Z,98588.84
2022-08-17T17:40:05.321Z,98590.81
2022-08-17T17:43:09.245Z,98596.44
2022-08-17T17:46:28.245Z,98588.91
2022-08-17T17:49:17.452Z,98589.22
2022-08-17T17:52:20.364Z,98585.06
2022-08-17T17:55:14.579Z,98587.22
2022-08-17T17:58:19.392Z,98588.84
2022-08-17T18:01:21.946Z,98592.38
2022-08-17T18:04:23.917Z,98597.41
2022-08-17T18:07:33.496Z,98608.75
2022-08-17T18:10:40.372Z,98618.06
2022-08-17T18:13:34.894Z,98622.34
2022-08-17T18:16:20.231Z,98622.44
2022-08-17T18:19:06.167Z,98629.22
2022-08-17T18:22:14.996Z,98635.88
2022-08-17T18:25:00.295Z,98629.00
2022-08-17T18:27:50.763Z,98635.94
2022-08-17T18:30:36.169Z,98637.59
2022-08-17T18:33:23.996Z,98640.63
2022-08-17T18:36:10.290Z,98632.13
2022-08-17T18:39:28.067Z,98617.16
2022-08-17T18:42:25.778Z,98621.16
2022-08-17T18:45:12.355Z,98622.31
2022-08-17T18:47:57.390Z,98622.88
2022-08-17T18:50:42.552Z,98621.63
2022-08-17T18:53:54.149Z,98618.84
2022-08-17T18:57:03.996Z,98621.53
2022-08-17T18:59:49.505Z,98624.44
2022-08-17T19:02:47.596Z,98634.41
2022-08-17T19:05:50.019Z,98632.06
2022-08-17T19:08:35.582Z,98624.53
2022-08-17T19:11:24.512Z,98628.50
2022-08-17T19:14:16.148Z,98623.56
2022-08-17T19:17:25.600Z,98622.31
2022-08-17T19:20:30.186Z,98617.59
2022-08-17T19:23:21.611Z,98619.44
2022-08-17T19:26:54.393Z,98612.38
2022-08-17T19:29:36.617Z,98617.41
2022-08-17T19:32:25.744Z,98618.75
2022-08-17T19:35:16.790Z,98621.47
2022-08-17T19:38:26.195Z,98629.56
2022-08-17T19:41:44.042Z,98620.22
2022-08-17T19:45:07.333Z,98621.09
2022-08-17T19:48:03.844Z,98620.91
2022-08-17T19:50:54.733Z,98618.56
2022-08-17T19:54:07.185Z,98626.50
2022-08-17T19:57:06.208Z,98618.28
2022-08-17T19:59:54.338Z,98625.91
2022-08-17T20:03:06.206Z,98624.38
2022-08-17T20:06:19.346Z,98620.31
2022-08-17T20:09:38.418Z,98635.00
2022-08-17T20:12:37.895Z,98635.00
2022-08-17T20:15:29.420Z,98628.03
2022-08-17T20:18:37.273Z,98630.16
2022-08-17T20:21:25.482Z,98625.72
2022-08-17T20:24:36.483Z,98628.13
2022-08-17T20:27:28.018Z,98626.59
2022-08-17T20:30:23.569Z,98632.41
2022-08-17T20:33:39.452Z,98623.03
2022-08-17T20:36:25.247Z,98631.31
2022-08-17T20:39:37.314Z,98633.66
2022-08-17T20:42:22.350Z,98640.13
2022-08-17T20:45:26.691Z,98631.44
2022-08-17T20:48:36.437Z,98631.63
2022-08-17T20:52:00.820Z,98629.50
2022-08-17T20:54:53.742Z,98628.53
2022-08-17T20:57:38.764Z,98623.91
2022-08-17T21:00:29.901Z,98635.47
2022-08-17T21:03:23.849Z,98633.16
2022-08-17T21:06:17.164Z,98622.25
2022-08-17T21:09:29.444Z,98632.66
2022-08-17T21:12:47.422Z,98636.63
2022-08-17T21:15:43.281Z,98638.56
2022-08-17T21:18:49.815Z,98641.94
2022-08-17T21:22:16.668Z,98641.94
2022-08-17T21:25:40.305Z,98643.75
2022-08-17T21:29:00.628Z,98641.47
2022-08-17T21:32:15.814Z,98632.59
2022-08-17T21:35:06.940Z,98630.72
2022-08-17T21:38:02.405Z,98634.41
2022-08-17T21:40:52.247Z,98635.75
2022-08-17T21:43:48.803Z,98627.25
2022-08-17T21:46:37.117Z,98636.44
2022-08-17T21:49:26.322Z,98634.66
2022-08-17T21:52:14.601Z,98637.56
2022-08-17T21:55:01.876Z,98636.31
2022-08-17T21:57:53.073Z,98629.03
2022-08-17T22:01:23.058Z,98642.28
2022-08-17T22:04:11.530Z,98631.88
2022-08-17T22:06:59.104Z,98636.00
2022-08-17T22:09:49.468Z,98633.69
2022-08-17T22:12:34.363Z,98631.63
2022-08-17T22:15:20.320Z,98618.91
2022-08-17T22:18:21.666Z,98628.25
2022-08-17T22:21:07.147Z,98632.97
2022-08-17T22:24:22.139Z,98623.63
2022-08-17T22:27:12.721Z,98621.78
2022-08-17T22:29:59.287Z,98618.78
2022-08-17T22:32:47.723Z,98615.38
2022-08-17T22:35:55.238Z,98619.06
2022-08-17T22:38:43.764Z,98618.88
2022-08-17T22:41:34.023Z,98614.69
2022-08-17T22:44:22.692Z,98615.78
2022-08-17T22:47:14.343Z,98614.50
2022-08-17T22:50:02.692Z,98605.44
2022-08-17T22:53:16.384Z,98610.91
2022-08-17T22:56:19.715Z,98604.28
2022-08-17T22:59:21.864Z,98597.78
2022-08-17T23:02:15.708Z,98602.97
2022-08-17T23:05:10.200Z,98606.34
2022-08-17T23:07:55.404Z,98601.72
2022-08-17T23:10:41.482Z,98604.31
2022-08-17T23:13:27.468Z,98603.84
2022-08-17T23:16:14.456Z,98609.81
2022-08-17T23:18:59.480Z,98608.00
2022-08-17T23:21:45.068Z,98607.78
2022-08-17T23:24:35.177Z,98608.88
2022-08-17T23:27:21.581Z,98616.16
2022-08-17T23:30:10.322Z,98607.09
2022-08-17T23:33:00.755Z,98605.81
2022-08-17T23:35:45.948Z,98604.31
2022-08-17T23:38:32.517Z,98610.25
2022-08-17T23:41:19.935Z,98609.22
2022-08-17T23:44:06.687Z,98612.59
2022-08-17T23:46:52.377Z,98607.88
2022-08-17T23:49:38.146Z,98612.50
2022-08-17T23:52:25.792Z,98628.13
2022-08-17T23:55:10.845Z,98633.91
2022-08-17T23:57:55.826Z,98629.56
